sensor_id;sensor_type;location;lat;lon;timestamp;temperature;humidity
16643;DHT22;8435;52.184;5.406;2022-07-29T00:01:52;20.10;78.60
16643;DHT22;8435;52.184;5.406;2022-07-29T00:04:19;20.10;79.00
16643;DHT22;8435;52.184;5.406;2022-07-29T00:06:45;20.10;78.80
16643;DHT22;8435;52.184;5.406;2022-07-29T00:09:12;20.00;78.90
16643;DHT22;8435;52.184;5.406;2022-07-29T00:11:40;20.00;79.10
16643;DHT22;8435;52.184;5.406;2022-07-29T00:14:09;20.00;79.30
16643;DHT22;8435;52.184;5.406;2022-07-29T00:16:36;19.90;79.50
16643;DHT22;8435;52.184;5.406;2022-07-29T00:19:04;19.90;79.50
16643;DHT22;8435;52.184;5.406;2022-07-29T00:21:31;19.90;79.80
16643;DHT22;8435;52.184;5.406;2022-07-29T00:23:57;19.90;79.80
16643;DHT22;8435;52.184;5.406;2022-07-29T00:26:24;19.90;79.80
16643;DHT22;8435;52.184;5.406;2022-07-29T00:28:53;19.90;79.90
16643;DHT22;8435;52.184;5.406;2022-07-29T00:31:22;19.90;80.00
16643;DHT22;8435;52.184;5.406;2022-07-29T00:33:49;19.80;80.40
16643;DHT22;8435;52.184;5.406;2022-07-29T00:36:17;19.80;80.20
16643;DHT22;8435;52.184;5.406;2022-07-29T00:38:43;19.80;80.40
16643;DHT22;8435;52.184;5.406;2022-07-29T00:41:11;19.80;80.40
16643;DHT22;8435;52.184;5.406;2022-07-29T00:43:38;19.80;80.60
16643;DHT22;8435;52.184;5.406;2022-07-29T00:46:05;19.70;80.60
16643;DHT22;8435;52.184;5.406;2022-07-29T00:48:31;19.70;80.70
16643;DHT22;8435;52.184;5.406;2022-07-29T00:50:59;19.70;80.80
16643;DHT22;8435;52.184;5.406;2022-07-29T00:53:29;19.70;81.00
16643;DHT22;8435;52.184;5.406;2022-07-29T00:55:57;19.70;81.10
16643;DHT22;8435;52.184;5.406;2022-07-29T00:58:24;19.60;80.90
16643;DHT22;8435;52.184;5.406;2022-07-29T01:00:53;19.60;81.10
16643;DHT22;8435;52.184;5.406;2022-07-29T01:03:20;19.60;81.40
16643;DHT22;8435;52.184;5.406;2022-07-29T01:05:49;19.60;81.40
16643;DHT22;8435;52.184;5.406;2022-07-29T01:08:17;19.60;81.80
16643;DHT22;8435;52.184;5.406;2022-07-29T01:10:47;19.50;81.50
16643;DHT22;8435;52.184;5.406;2022-07-29T01:13:14;19.50;81.60
16643;DHT22;8435;52.184;5.406;2022-07-29T01:15:44;19.50;81.50
16643;DHT22;8435;52.184;5.406;2022-07-29T01:18:17;19.50;81.70
16643;DHT22;8435;52.184;5.406;2022-07-29T01:21:00;19.50;81.80
16643;DHT22;8435;52.184;5.406;2022-07-29T01:23:46;19.50;82.00
16643;DHT22;8435;52.184;5.406;2022-07-29T01:26:33;19.50;82.00
16643;DHT22;8435;52.184;5.406;2022-07-29T01:29:12;19.50;82.20
16643;DHT22;8435;52.184;5.406;2022-07-29T01:31:45;19.50;82.10
16643;DHT22;8435;52.184;5.406;2022-07-29T01:34:25;19.40;81.80
16643;DHT22;8435;52.184;5.406;2022-07-29T01:36:58;19.40;82.10
16643;DHT22;8435;52.184;5.406;2022-07-29T01:39:30;19.40;81.90
16643;DHT22;8435;52.184;5.406;2022-07-29T01:42:04;19.40;82.00
16643;DHT22;8435;52.184;5.406;2022-07-29T01:44:37;19.40;82.30
16643;DHT22;8435;52.184;5.406;2022-07-29T01:47:11;19.40;82.30
16643;DHT22;8435;52.184;5.406;2022-07-29T01:49:46;19.40;82.50
16643;DHT22;8435;52.184;5.406;2022-07-29T01:52:20;19.30;82.50
16643;DHT22;8435;52.184;5.406;2022-07-29T01:54:52;19.30;82.50
16643;DHT22;8435;52.184;5.406;2022-07-29T01:57:22;19.30;82.60
16643;DHT22;8435;52.184;5.406;2022-07-29T01:59:55;19.30;82.60
16643;DHT22;8435;52.184;5.406;2022-07-29T02:02:23;19.30;82.90
16643;DHT22;8435;52.184;5.406;2022-07-29T02:04:51;19.30;82.60
16643;DHT22;8435;52.184;5.406;2022-07-29T02:07:22;19.20;82.80
16643;DHT22;8435;52.184;5.406;2022-07-29T02:09:50;19.20;82.80
16643;DHT22;8435;52.184;5.406;2022-07-29T02:12:20;19.20;82.90
16643;DHT22;8435;52.184;5.406;2022-07-29T02:14:52;19.20;83.00
16643;DHT22;8435;52.184;5.406;2022-07-29T02:17:23;19.20;83.20
16643;DHT22;8435;52.184;5.406;2022-07-29T02:19:51;19.20;83.30
16643;DHT22;8435;52.184;5.406;2022-07-29T02:22:19;19.20;83.20
16643;DHT22;8435;52.184;5.406;2022-07-29T02:24:49;19.10;83.30
16643;DHT22;8435;52.184;5.406;2022-07-29T02:27:19;19.20;83.30
16643;DHT22;8435;52.184;5.406;2022-07-29T02:29:47;19.20;83.40
16643;DHT22;8435;52.184;5.406;2022-07-29T02:32:17;19.20;83.40
16643;DHT22;8435;52.184;5.406;2022-07-29T02:34:46;19.10;83.70
16643;DHT22;8435;52.184;5.406;2022-07-29T02:37:16;19.20;83.70
16643;DHT22;8435;52.184;5.406;2022-07-29T02:39:44;19.10;83.80
16643;DHT22;8435;52.184;5.406;2022-07-29T02:42:13;19.10;83.90
16643;DHT22;8435;52.184;5.406;2022-07-29T02:44:41;19.20;84.00
16643;DHT22;8435;52.184;5.406;2022-07-29T02:47:13;19.20;83.80
16643;DHT22;8435;52.184;5.406;2022-07-29T02:49:48;19.20;84.10
16643;DHT22;8435;52.184;5.406;2022-07-29T02:52:22;19.20;84.20
16643;DHT22;8435;52.184;5.406;2022-07-29T02:54:53;19.20;84.00
16643;DHT22;8435;52.184;5.406;2022-07-29T02:57:31;19.20;84.10
16643;DHT22;8435;52.184;5.406;2022-07-29T03:00:02;19.20;84.30
16643;DHT22;8435;52.184;5.406;2022-07-29T03:02:33;19.20;84.00
16643;DHT22;8435;52.184;5.406;2022-07-29T03:05:03;19.20;84.10
16643;DHT22;8435;52.184;5.406;2022-07-29T03:07:31;19.10;84.10
16643;DHT22;8435;52.184;5.406;2022-07-29T03:10:00;19.10;84.10
16643;DHT22;8435;52.184;5.406;2022-07-29T03:12:28;19.10;84.10
16643;DHT22;8435;52.184;5.406;2022-07-29T03:14:57;19.10;84.20
16643;DHT22;8435;52.184;5.406;2022-07-29T03:17:25;19.10;84.10
16643;DHT22;8435;52.184;5.406;2022-07-29T03:19:52;19.10;84.30
16643;DHT22;8435;52.184;5.406;2022-07-29T03:22:21;19.10;84.30
16643;DHT22;8435;52.184;5.406;2022-07-29T03:24:50;19.00;84.50
16643;DHT22;8435;52.184;5.406;2022-07-29T03:27:17;19.10;84.80
16643;DHT22;8435;52.184;5.406;2022-07-29T03:29:44;19.10;84.80
16643;DHT22;8435;52.184;5.406;2022-07-29T03:32:10;19.10;84.80
16643;DHT22;8435;52.184;5.406;2022-07-29T03:34:37;19.10;84.90
16643;DHT22;8435;52.184;5.406;2022-07-29T03:37:04;19.00;84.90
16643;DHT22;8435;52.184;5.406;2022-07-29T03:39:36;19.10;84.90
16643;DHT22;8435;52.184;5.406;2022-07-29T03:42:06;19.10;85.10
16643;DHT22;8435;52.184;5.406;2022-07-29T03:44:35;19.00;84.90
16643;DHT22;8435;52.184;5.406;2022-07-29T03:47:04;19.00;84.90
16643;DHT22;8435;52.184;5.406;2022-07-29T03:49:33;19.00;85.10
16643;DHT22;8435;52.184;5.406;2022-07-29T03:52:02;19.00;84.90
16643;DHT22;8435;52.184;5.406;2022-07-29T03:54:33;19.00;85.00
16643;DHT22;8435;52.184;5.406;2022-07-29T03:57:02;18.90;85.20
16643;DHT22;8435;52.184;5.406;2022-07-29T03:59:30;18.90;85.00
16643;DHT22;8435;52.184;5.406;2022-07-29T04:02:00;18.90;85.10
16643;DHT22;8435;52.184;5.406;2022-07-29T04:04:27;18.90;85.20
16643;DHT22;8435;52.184;5.406;2022-07-29T04:06:54;18.80;85.30
16643;DHT22;8435;52.184;5.406;2022-07-29T04:09:21;18.80;85.30
16643;DHT22;8435;52.184;5.406;2022-07-29T04:11:49;18.70;85.40
16643;DHT22;8435;52.184;5.406;2022-07-29T04:14:18;18.80;85.70
16643;DHT22;8435;52.184;5.406;2022-07-29T04:16:45;18.70;85.70
16643;DHT22;8435;52.184;5.406;2022-07-29T04:19:12;18.70;85.90
16643;DHT22;8435;52.184;5.406;2022-07-29T04:21:39;18.70;85.90
16643;DHT22;8435;52.184;5.406;2022-07-29T04:24:07;18.70;86.00
16643;DHT22;8435;52.184;5.406;2022-07-29T04:26:34;18.70;86.00
16643;DHT22;8435;52.184;5.406;2022-07-29T04:29:02;18.70;86.00
16643;DHT22;8435;52.184;5.406;2022-07-29T04:31:29;18.80;86.10
16643;DHT22;8435;52.184;5.406;2022-07-29T04:33:56;18.70;86.00
16643;DHT22;8435;52.184;5.406;2022-07-29T04:36:22;18.80;86.10
16643;DHT22;8435;52.184;5.406;2022-07-29T04:38:49;18.80;86.20
16643;DHT22;8435;52.184;5.406;2022-07-29T04:41:16;18.70;86.20
16643;DHT22;8435;52.184;5.406;2022-07-29T04:43:43;18.80;86.40
16643;DHT22;8435;52.184;5.406;2022-07-29T04:46:11;18.80;86.40
16643;DHT22;8435;52.184;5.406;2022-07-29T04:48:37;18.80;86.50
16643;DHT22;8435;52.184;5.406;2022-07-29T04:51:04;18.80;86.50
16643;DHT22;8435;52.184;5.406;2022-07-29T04:53:31;18.80;86.60
16643;DHT22;8435;52.184;5.406;2022-07-29T04:55:57;18.80;86.70
16643;DHT22;8435;52.184;5.406;2022-07-29T04:58:24;18.80;86.70
16643;DHT22;8435;52.184;5.406;2022-07-29T05:00:51;18.80;86.80
16643;DHT22;8435;52.184;5.406;2022-07-29T05:03:19;18.80;86.60
16643;DHT22;8435;52.184;5.406;2022-07-29T05:05:46;18.80;86.60
16643;DHT22;8435;52.184;5.406;2022-07-29T05:08:13;18.80;86.70
16643;DHT22;8435;52.184;5.406;2022-07-29T05:10:40;18.80;86.60
16643;DHT22;8435;52.184;5.406;2022-07-29T05:13:07;18.90;86.60
16643;DHT22;8435;52.184;5.406;2022-07-29T05:15:35;18.90;86.90
16643;DHT22;8435;52.184;5.406;2022-07-29T05:18:02;18.90;86.70
16643;DHT22;8435;52.184;5.406;2022-07-29T05:20:31;18.80;87.40
16643;DHT22;8435;52.184;5.406;2022-07-29T05:23:00;18.90;86.70
16643;DHT22;8435;52.184;5.406;2022-07-29T05:25:28;18.80;86.70
16643;DHT22;8435;52.184;5.406;2022-07-29T05:27:55;18.80;86.80
16643;DHT22;8435;52.184;5.406;2022-07-29T05:30:22;18.90;86.90
16643;DHT22;8435;52.184;5.406;2022-07-29T05:32:49;18.90;86.90
16643;DHT22;8435;52.184;5.406;2022-07-29T05:35:16;18.90;87.00
16643;DHT22;8435;52.184;5.406;2022-07-29T05:37:44;18.90;87.00
16643;DHT22;8435;52.184;5.406;2022-07-29T05:40:11;18.90;87.30
16643;DHT22;8435;52.184;5.406;2022-07-29T05:42:37;18.90;87.30
16643;DHT22;8435;52.184;5.406;2022-07-29T05:45:05;18.90;87.50
16643;DHT22;8435;52.184;5.406;2022-07-29T05:47:34;18.90;87.60
16643;DHT22;8435;52.184;5.406;2022-07-29T05:50:01;19.00;87.50
16643;DHT22;8435;52.184;5.406;2022-07-29T05:52:29;19.00;87.20
16643;DHT22;8435;52.184;5.406;2022-07-29T05:54:59;19.00;87.30
16643;DHT22;8435;52.184;5.406;2022-07-29T05:57:31;19.10;87.60
16643;DHT22;8435;52.184;5.406;2022-07-29T05:59:58;19.10;87.20
16643;DHT22;8435;52.184;5.406;2022-07-29T06:02:24;19.10;87.20
16643;DHT22;8435;52.184;5.406;2022-07-29T06:04:51;19.20;87.30
16643;DHT22;8435;52.184;5.406;2022-07-29T06:07:28;19.20;87.20
16643;DHT22;8435;52.184;5.406;2022-07-29T06:09:54;19.30;88.20
16643;DHT22;8435;52.184;5.406;2022-07-29T06:12:22;19.40;87.60
16643;DHT22;8435;52.184;5.406;2022-07-29T06:14:49;19.60;87.90
16643;DHT22;8435;52.184;5.406;2022-07-29T06:17:16;19.60;87.80
16643;DHT22;8435;52.184;5.406;2022-07-29T06:19:43;19.80;87.50
16643;DHT22;8435;52.184;5.406;2022-07-29T06:22:10;20.00;87.30
16643;DHT22;8435;52.184;5.406;2022-07-29T06:24:36;20.20;87.00
16643;DHT22;8435;52.184;5.406;2022-07-29T06:27:06;20.30;86.70
16643;DHT22;8435;52.184;5.406;2022-07-29T06:29:34;20.50;86.20
16643;DHT22;8435;52.184;5.406;2022-07-29T06:32:01;20.70;85.50
16643;DHT22;8435;52.184;5.406;2022-07-29T06:34:28;20.80;84.70
16643;DHT22;8435;52.184;5.406;2022-07-29T06:36:55;20.90;84.10
16643;DHT22;8435;52.184;5.406;2022-07-29T06:39:21;21.00;83.90
16643;DHT22;8435;52.184;5.406;2022-07-29T06:41:48;21.00;84.00
16643;DHT22;8435;52.184;5.406;2022-07-29T06:44:17;21.20;83.90
16643;DHT22;8435;52.184;5.406;2022-07-29T06:46:46;21.30;83.60
16643;DHT22;8435;52.184;5.406;2022-07-29T06:49:14;21.40;82.90
16643;DHT22;8435;52.184;5.406;2022-07-29T06:51:41;21.50;82.70
16643;DHT22;8435;52.184;5.406;2022-07-29T06:54:10;21.60;82.80
16643;DHT22;8435;52.184;5.406;2022-07-29T06:56:37;21.60;82.50
16643;DHT22;8435;52.184;5.406;2022-07-29T06:59:08;21.70;82.20
16643;DHT22;8435;52.184;5.406;2022-07-29T07:01:35;21.80;82.90
16643;DHT22;8435;52.184;5.406;2022-07-29T07:04:03;21.90;82.00
16643;DHT22;8435;52.184;5.406;2022-07-29T07:06:30;22.10;81.30
16643;DHT22;8435;52.184;5.406;2022-07-29T07:08:57;22.10;80.90
16643;DHT22;8435;52.184;5.406;2022-07-29T07:11:26;22.10;80.60
16643;DHT22;8435;52.184;5.406;2022-07-29T07:13:53;22.10;81.00
16643;DHT22;8435;52.184;5.406;2022-07-29T07:16:22;22.10;81.20
16643;DHT22;8435;52.184;5.406;2022-07-29T07:18:51;22.20;81.50
16643;DHT22;8435;52.184;5.406;2022-07-29T07:21:19;22.30;81.00
16643;DHT22;8435;52.184;5.406;2022-07-29T07:23:46;22.40;81.30
16643;DHT22;8435;52.184;5.406;2022-07-29T07:26:14;22.60;82.00
16643;DHT22;8435;52.184;5.406;2022-07-29T07:28:41;22.90;81.30
16643;DHT22;8435;52.184;5.406;2022-07-29T07:31:08;23.30;81.30
16643;DHT22;8435;52.184;5.406;2022-07-29T07:33:34;23.70;81.40
16643;DHT22;8435;52.184;5.406;2022-07-29T07:36:01;24.10;80.00
16643;DHT22;8435;52.184;5.406;2022-07-29T07:38:32;24.60;79.60
16643;DHT22;8435;52.184;5.406;2022-07-29T07:41:01;25.00;76.80
16643;DHT22;8435;52.184;5.406;2022-07-29T07:43:28;25.40;76.80
16643;DHT22;8435;52.184;5.406;2022-07-29T07:45:55;25.80;75.80
16643;DHT22;8435;52.184;5.406;2022-07-29T07:48:21;26.20;74.40
16643;DHT22;8435;52.184;5.406;2022-07-29T07:50:48;26.40;73.40
16643;DHT22;8435;52.184;5.406;2022-07-29T07:53:16;26.70;72.50
16643;DHT22;8435;52.184;5.406;2022-07-29T07:55:45;27.00;71.10
16643;DHT22;8435;52.184;5.406;2022-07-29T07:58:12;27.10;69.30
16643;DHT22;8435;52.184;5.406;2022-07-29T08:00:39;27.20;69.80
16643;DHT22;8435;52.184;5.406;2022-07-29T08:03:05;27.20;69.50
16643;DHT22;8435;52.184;5.406;2022-07-29T08:05:32;27.20;68.10
16643;DHT22;8435;52.184;5.406;2022-07-29T08:07:59;27.20;68.40
16643;DHT22;8435;52.184;5.406;2022-07-29T08:10:26;27.20;68.10
16643;DHT22;8435;52.184;5.406;2022-07-29T08:13:11;27.20;68.30
16643;DHT22;8435;52.184;5.406;2022-07-29T08:15:39;27.20;68.30
16643;DHT22;8435;52.184;5.406;2022-07-29T08:18:07;27.20;67.80
16643;DHT22;8435;52.184;5.406;2022-07-29T08:20:34;27.10;67.70
16643;DHT22;8435;52.184;5.406;2022-07-29T08:23:02;27.00;68.30
16643;DHT22;8435;52.184;5.406;2022-07-29T08:25:31;27.00;67.40
16643;DHT22;8435;52.184;5.406;2022-07-29T08:27:59;26.90;67.10
16643;DHT22;8435;52.184;5.406;2022-07-29T08:30:27;26.80;67.80
16643;DHT22;8435;52.184;5.406;2022-07-29T08:32:54;26.80;68.00
16643;DHT22;8435;52.184;5.406;2022-07-29T08:35:22;26.80;67.90
16643;DHT22;8435;52.184;5.406;2022-07-29T08:37:49;26.80;68.00
16643;DHT22;8435;52.184;5.406;2022-07-29T08:40:15;26.80;68.00
16643;DHT22;8435;52.184;5.406;2022-07-29T08:42:42;26.80;68.80
16643;DHT22;8435;52.184;5.406;2022-07-29T08:45:10;26.90;69.00
16643;DHT22;8435;52.184;5.406;2022-07-29T08:47:39;27.00;69.00
16643;DHT22;8435;52.184;5.406;2022-07-29T08:50:07;27.20;69.10
16643;DHT22;8435;52.184;5.406;2022-07-29T08:52:36;27.40;68.50
16643;DHT22;8435;52.184;5.406;2022-07-29T08:55:04;27.70;68.00
16643;DHT22;8435;52.184;5.406;2022-07-29T08:57:33;28.00;68.10
16643;DHT22;8435;52.184;5.406;2022-07-29T09:00:00;28.20;67.10
16643;DHT22;8435;52.184;5.406;2022-07-29T09:02:29;28.50;66.00
16643;DHT22;8435;52.184;5.406;2022-07-29T09:05:00;28.70;64.50
16643;DHT22;8435;52.184;5.406;2022-07-29T09:07:30;28.80;63.70
16643;DHT22;8435;52.184;5.406;2022-07-29T09:09:58;28.90;64.50
16643;DHT22;8435;52.184;5.406;2022-07-29T09:12:25;29.00;64.50
16643;DHT22;8435;52.184;5.406;2022-07-29T09:14:54;29.10;64.30
16643;DHT22;8435;52.184;5.406;2022-07-29T09:17:39;29.30;64.90
16643;DHT22;8435;52.184;5.406;2022-07-29T09:20:14;29.50;63.10
16643;DHT22;8435;52.184;5.406;2022-07-29T09:22:41;29.70;62.00
16643;DHT22;8435;52.184;5.406;2022-07-29T09:25:08;29.80;62.60
16643;DHT22;8435;52.184;5.406;2022-07-29T09:27:35;30.00;62.20
16643;DHT22;8435;52.184;5.406;2022-07-29T09:30:03;30.10;61.80
16643;DHT22;8435;52.184;5.406;2022-07-29T09:32:31;30.20;61.20
16643;DHT22;8435;52.184;5.406;2022-07-29T09:35:22;30.30;61.40
16643;DHT22;8435;52.184;5.406;2022-07-29T09:37:49;30.40;60.00
16643;DHT22;8435;52.184;5.406;2022-07-29T09:40:18;30.50;60.30
16643;DHT22;8435;52.184;5.406;2022-07-29T09:42:46;30.50;59.60
16643;DHT22;8435;52.184;5.406;2022-07-29T09:45:13;30.60;59.30
16643;DHT22;8435;52.184;5.406;2022-07-29T09:47:52;30.70;59.10
16643;DHT22;8435;52.184;5.406;2022-07-29T09:50:20;30.80;58.40
16643;DHT22;8435;52.184;5.406;2022-07-29T09:52:50;30.80;57.70
16643;DHT22;8435;52.184;5.406;2022-07-29T09:55:18;30.80;57.40
16643;DHT22;8435;52.184;5.406;2022-07-29T09:57:45;30.80;58.00
16643;DHT22;8435;52.184;5.406;2022-07-29T10:00:14;30.90;58.60
16643;DHT22;8435;52.184;5.406;2022-07-29T10:02:43;30.80;57.40
16643;DHT22;8435;52.184;5.406;2022-07-29T10:05:22;30.70;57.30
16643;DHT22;8435;52.184;5.406;2022-07-29T10:07:51;30.70;57.40
16643;DHT22;8435;52.184;5.406;2022-07-29T10:10:22;30.60;57.60
16643;DHT22;8435;52.184;5.406;2022-07-29T10:12:51;30.50;57.40
16643;DHT22;8435;52.184;5.406;2022-07-29T10:15:18;30.40;57.80
16643;DHT22;8435;52.184;5.406;2022-07-29T10:17:46;30.30;58.20
16643;DHT22;8435;52.184;5.406;2022-07-29T10:20:13;30.10;57.80
16643;DHT22;8435;52.184;5.406;2022-07-29T10:22:42;30.00;57.80
16643;DHT22;8435;52.184;5.406;2022-07-29T10:25:10;29.80;58.20
16643;DHT22;8435;52.184;5.406;2022-07-29T10:27:37;29.70;58.40
16643;DHT22;8435;52.184;5.406;2022-07-29T10:30:05;29.60;58.90
16643;DHT22;8435;52.184;5.406;2022-07-29T10:32:46;29.40;59.00
16643;DHT22;8435;52.184;5.406;2022-07-29T10:38:48;29.30;59.80
16643;DHT22;8435;52.184;5.406;2022-07-29T10:41:32;29.20;60.00
16643;DHT22;8435;52.184;5.406;2022-07-29T10:44:06;29.20;60.00
16643;DHT22;8435;52.184;5.406;2022-07-29T10:46:36;29.20;59.90
16643;DHT22;8435;52.184;5.406;2022-07-29T10:49:10;29.10;60.00
16643;DHT22;8435;52.184;5.406;2022-07-29T10:52:07;29.10;59.80
16643;DHT22;8435;52.184;5.406;2022-07-29T10:54:43;29.10;59.80
16643;DHT22;8435;52.184;5.406;2022-07-29T10:57:17;29.00;59.50
16643;DHT22;8435;52.184;5.406;2022-07-29T10:59:46;29.00;59.70
16643;DHT22;8435;52.184;5.406;2022-07-29T11:02:42;28.90;60.40
16643;DHT22;8435;52.184;5.406;2022-07-29T11:05:10;28.80;60.40
16643;DHT22;8435;52.184;5.406;2022-07-29T11:08:17;28.70;60.10
16643;DHT22;8435;52.184;5.406;2022-07-29T11:10:47;28.60;60.80
16643;DHT22;8435;52.184;5.406;2022-07-29T11:16:11;28.50;61.10
16643;DHT22;8435;52.184;5.406;2022-07-29T11:21:42;28.30;61.40
16643;DHT22;8435;52.184;5.406;2022-07-29T11:24:12;28.30;61.70
16643;DHT22;8435;52.184;5.406;2022-07-29T11:26:41;28.20;61.30
16643;DHT22;8435;52.184;5.406;2022-07-29T11:29:17;28.20;61.30
16643;DHT22;8435;52.184;5.406;2022-07-29T11:31:46;28.10;61.70
16643;DHT22;8435;52.184;5.406;2022-07-29T11:34:26;28.10;61.80
16643;DHT22;8435;52.184;5.406;2022-07-29T11:37:14;28.00;61.80
16643;DHT22;8435;52.184;5.406;2022-07-29T11:39:42;28.00;61.30
16643;DHT22;8435;52.184;5.406;2022-07-29T11:42:48;27.90;61.50
16643;DHT22;8435;52.184;5.406;2022-07-29T11:45:20;27.90;62.00
16643;DHT22;8435;52.184;5.406;2022-07-29T11:47:55;27.90;62.10
16643;DHT22;8435;52.184;5.406;2022-07-29T11:50:41;27.90;61.60
16643;DHT22;8435;52.184;5.406;2022-07-29T11:53:11;27.90;61.50
16643;DHT22;8435;52.184;5.406;2022-07-29T11:55:39;27.90;61.70
16643;DHT22;8435;52.184;5.406;2022-07-29T11:58:08;27.80;62.30
16643;DHT22;8435;52.184;5.406;2022-07-29T12:00:36;27.80;62.80
16643;DHT22;8435;52.184;5.406;2022-07-29T12:03:04;27.80;62.70
16643;DHT22;8435;52.184;5.406;2022-07-29T12:05:40;27.80;63.60
16643;DHT22;8435;52.184;5.406;2022-07-29T12:08:09;27.80;63.80
16643;DHT22;8435;52.184;5.406;2022-07-29T12:10:36;27.80;62.90
16643;DHT22;8435;52.184;5.406;2022-07-29T12:13:03;27.80;63.30
16643;DHT22;8435;52.184;5.406;2022-07-29T12:15:32;27.80;63.40
16643;DHT22;8435;52.184;5.406;2022-07-29T12:17:59;27.80;63.80
16643;DHT22;8435;52.184;5.406;2022-07-29T12:20:35;27.80;64.00
16643;DHT22;8435;52.184;5.406;2022-07-29T12:23:06;27.80;63.60
16643;DHT22;8435;52.184;5.406;2022-07-29T12:25:35;27.80;63.50
16643;DHT22;8435;52.184;5.406;2022-07-29T12:28:04;27.80;63.80
16643;DHT22;8435;52.184;5.406;2022-07-29T12:30:40;27.70;64.10
16643;DHT22;8435;52.184;5.406;2022-07-29T12:33:12;27.70;64.10
16643;DHT22;8435;52.184;5.406;2022-07-29T12:35:39;27.70;64.10
16643;DHT22;8435;52.184;5.406;2022-07-29T12:38:06;27.70;64.20
16643;DHT22;8435;52.184;5.406;2022-07-29T12:40:33;27.70;64.50
16643;DHT22;8435;52.184;5.406;2022-07-29T12:43:10;27.70;64.60
16643;DHT22;8435;52.184;5.406;2022-07-29T12:45:41;27.70;65.10
16643;DHT22;8435;52.184;5.406;2022-07-29T12:48:10;27.80;64.60
16643;DHT22;8435;52.184;5.406;2022-07-29T12:50:53;27.80;64.90
16643;DHT22;8435;52.184;5.406;2022-07-29T12:53:20;27.80;64.30
16643;DHT22;8435;52.184;5.406;2022-07-29T12:55:48;27.80;64.60
16643;DHT22;8435;52.184;5.406;2022-07-29T12:58:30;27.80;64.60
16643;DHT22;8435;52.184;5.406;2022-07-29T13:01:07;27.80;64.70
16643;DHT22;8435;52.184;5.406;2022-07-29T13:03:44;27.80;64.50
16643;DHT22;8435;52.184;5.406;2022-07-29T13:06:34;27.80;64.90
16643;DHT22;8435;52.184;5.406;2022-07-29T13:09:05;27.80;64.30
16643;DHT22;8435;52.184;5.406;2022-07-29T13:11:33;27.80;65.00
16643;DHT22;8435;52.184;5.406;2022-07-29T13:14:00;27.80;64.50
16643;DHT22;8435;52.184;5.406;2022-07-29T13:16:28;27.80;64.30
16643;DHT22;8435;52.184;5.406;2022-07-29T13:19:07;27.90;64.20
16643;DHT22;8435;52.184;5.406;2022-07-29T13:21:35;27.90;64.20
16643;DHT22;8435;52.184;5.406;2022-07-29T13:24:02;27.90;64.60
16643;DHT22;8435;52.184;5.406;2022-07-29T13:26:29;27.80;64.50
16643;DHT22;8435;52.184;5.406;2022-07-29T13:28:56;27.80;65.30
16643;DHT22;8435;52.184;5.406;2022-07-29T13:31:23;27.80;64.40
16643;DHT22;8435;52.184;5.406;2022-07-29T13:33:51;27.80;64.10
16643;DHT22;8435;52.184;5.406;2022-07-29T13:36:18;27.80;63.90
16643;DHT22;8435;52.184;5.406;2022-07-29T13:38:45;27.80;64.00
16643;DHT22;8435;52.184;5.406;2022-07-29T13:41:12;27.70;64.20
16643;DHT22;8435;52.184;5.406;2022-07-29T13:43:39;27.80;64.50
16643;DHT22;8435;52.184;5.406;2022-07-29T13:46:06;27.80;64.40
16643;DHT22;8435;52.184;5.406;2022-07-29T13:48:33;27.80;64.80
16643;DHT22;8435;52.184;5.406;2022-07-29T13:51:04;27.80;64.70
16643;DHT22;8435;52.184;5.406;2022-07-29T13:53:31;27.80;65.20
16643;DHT22;8435;52.184;5.406;2022-07-29T13:55:58;27.80;64.90
16643;DHT22;8435;52.184;5.406;2022-07-29T13:58:25;27.80;64.90
16643;DHT22;8435;52.184;5.406;2022-07-29T14:00:52;27.80;64.20
16643;DHT22;8435;52.184;5.406;2022-07-29T14:03:19;27.90;64.40
16643;DHT22;8435;52.184;5.406;2022-07-29T14:05:45;27.90;64.80
16643;DHT22;8435;52.184;5.406;2022-07-29T14:08:13;27.90;64.00
16643;DHT22;8435;52.184;5.406;2022-07-29T14:10:45;27.90;64.50
16643;DHT22;8435;52.184;5.406;2022-07-29T14:13:15;27.90;64.30
16643;DHT22;8435;52.184;5.406;2022-07-29T14:15:43;27.90;64.50
16643;DHT22;8435;52.184;5.406;2022-07-29T14:18:10;27.90;64.30
16643;DHT22;8435;52.184;5.406;2022-07-29T14:20:36;27.90;64.60
16643;DHT22;8435;52.184;5.406;2022-07-29T14:23:03;27.90;65.00
16643;DHT22;8435;52.184;5.406;2022-07-29T14:25:31;27.90;65.00
16643;DHT22;8435;52.184;5.406;2022-07-29T14:27:58;27.90;64.80
16643;DHT22;8435;52.184;5.406;2022-07-29T14:30:25;27.90;64.50
16643;DHT22;8435;52.184;5.406;2022-07-29T14:32:52;27.90;64.60
16643;DHT22;8435;52.184;5.406;2022-07-29T14:35:18;27.90;64.30
16643;DHT22;8435;52.184;5.406;2022-07-29T14:37:45;27.90;64.30
16643;DHT22;8435;52.184;5.406;2022-07-29T14:40:12;27.90;64.40
16643;DHT22;8435;52.184;5.406;2022-07-29T14:42:42;27.90;64.00
16643;DHT22;8435;52.184;5.406;2022-07-29T14:45:09;27.90;63.90
16643;DHT22;8435;52.184;5.406;2022-07-29T14:47:37;27.90;64.10
16643;DHT22;8435;52.184;5.406;2022-07-29T14:50:05;27.90;64.00
16643;DHT22;8435;52.184;5.406;2022-07-29T14:52:32;27.90;63.60
16643;DHT22;8435;52.184;5.406;2022-07-29T14:55:00;27.90;63.30
16643;DHT22;8435;52.184;5.406;2022-07-29T14:57:27;27.90;63.30
16643;DHT22;8435;52.184;5.406;2022-07-29T14:59:58;27.90;63.20
16643;DHT22;8435;52.184;5.406;2022-07-29T15:02:25;27.80;62.80
16643;DHT22;8435;52.184;5.406;2022-07-29T15:04:52;27.80;62.60
16643;DHT22;8435;52.184;5.406;2022-07-29T15:07:18;27.80;62.40
16643;DHT22;8435;52.184;5.406;2022-07-29T15:09:47;27.80;62.20
16643;DHT22;8435;52.184;5.406;2022-07-29T15:12:14;27.80;62.10
16643;DHT22;8435;52.184;5.406;2022-07-29T15:14:40;27.80;62.00
16643;DHT22;8435;52.184;5.406;2022-07-29T15:17:13;27.80;61.90
16643;DHT22;8435;52.184;5.406;2022-07-29T15:19:40;27.80;61.90
16643;DHT22;8435;52.184;5.406;2022-07-29T15:22:09;27.80;61.40
16643;DHT22;8435;52.184;5.406;2022-07-29T15:24:36;27.80;61.70
16643;DHT22;8435;52.184;5.406;2022-07-29T15:27:02;27.80;61.50
16643;DHT22;8435;52.184;5.406;2022-07-29T15:29:29;27.70;60.80
16643;DHT22;8435;52.184;5.406;2022-07-29T15:31:58;27.70;61.00
16643;DHT22;8435;52.184;5.406;2022-07-29T15:34:26;27.70;61.10
16643;DHT22;8435;52.184;5.406;2022-07-29T15:36:55;27.60;61.30
16643;DHT22;8435;52.184;5.406;2022-07-29T15:39:21;27.60;60.90
16643;DHT22;8435;52.184;5.406;2022-07-29T15:41:49;27.60;61.00
16643;DHT22;8435;52.184;5.406;2022-07-29T15:44:16;27.60;60.90
16643;DHT22;8435;52.184;5.406;2022-07-29T15:46:42;27.60;60.90
16643;DHT22;8435;52.184;5.406;2022-07-29T15:49:28;27.50;60.90
16643;DHT22;8435;52.184;5.406;2022-07-29T15:51:59;27.60;60.20
16643;DHT22;8435;52.184;5.406;2022-07-29T15:54:26;27.60;60.00
16643;DHT22;8435;52.184;5.406;2022-07-29T15:56:56;27.50;60.10
16643;DHT22;8435;52.184;5.406;2022-07-29T15:59:23;27.50;60.30
16643;DHT22;8435;52.184;5.406;2022-07-29T16:01:50;27.50;60.30
16643;DHT22;8435;52.184;5.406;2022-07-29T16:04:19;27.50;60.10
16643;DHT22;8435;52.184;5.406;2022-07-29T16:06:47;27.40;59.90
16643;DHT22;8435;52.184;5.406;2022-07-29T16:09:17;27.40;59.50